Letham, United Kingdom
Current Conditions -  °F | °C
As of 12:50 PM on Thursday 30 Oct 2014 (Local Time) from EGPN Reporting Station
Broken Clouds Broken Clouds  
Wind Chill: 11°   Ceiling: 1700
Heat Index: 11°   Visibility: 5mi
Dew Point: 10°   Wind: 2mph
Humidity: 94%   Direction: 110°ESE
Pressure: 29.88"   Gusts: NA
Location:  56.62°N, 2.77°W
Report Text: EGPN 301250Z 11002KT 8000 SCT008 BKN017 11/10 Q1012
Loading
Personal Weather Stations






























Interactive Weather Map
Tropical Storm Tracking
New forecast layout! Learn more

10-Day Weather Forecast

Advertisements
Track Severe Weather on mobile